Time;durP1;ratioP1;P1;durP2;ratioP2;P2;SDS_P1;SDS_P2;PMS_P1;PMS_P2;Temp;Humidity;BMP_temperature;BMP_pressure;BME280_temperature;BME280_humidity;BME280_pressure;Samples;Min_cycle;Max_cycle;Signal;HPM_P1;HPM_P2
2022/11/10 00:00:32;;;;;;;10.20;4.70;;;;;;;;;;5028711;28;20316;-77
2022/11/10 00:03:16;;;;;;;8.57;4.93;;;;;;;;;;5020019;28;20213;-78
2022/11/10 00:06:02;;;;;;;20.73;8.97;;;;;;;;;;5027083;28;20218;-78
2022/11/10 00:08:47;;;;;;;15.13;6.30;;;;;;;;;;5017685;28;20713;-78
2022/11/10 00:11:32;;;;;;;17.70;8.03;;;;;;;;;;5009852;28;20563;-77
2022/11/10 00:17:21;;;;;;;18.70;8.17;;;;;;;;;;5026495;28;20197;-77
2022/11/10 00:20:05;;;;;;;18.67;8.10;;;;;;;;;;5024820;28;20244;-77
2022/11/10 00:22:50;;;;;;;32.60;14.47;;;;;;;;;;5028084;28;20658;-77
2022/11/10 00:25:35;;;;;;;24.00;11.03;;;;;;;;;;5008496;28;20207;-78
2022/11/10 00:28:20;;;;;;;35.53;15.17;;;;;;;;;;5011759;28;20183;-77
2022/11/10 00:31:06;;;;;;;24.97;12.30;;;;;;;;;;5027844;28;20244;-77
2022/11/10 00:33:50;;;;;;;31.97;14.30;;;;;;;;;;5023697;28;20174;-78
2022/11/10 00:36:35;;;;;;;17.37;9.23;;;;;;;;;;5016868;28;20748;-78
2022/11/10 00:39:20;;;;;;;23.13;11.87;;;;;;;;;;5027159;28;20565;-77
2022/11/10 00:42:06;;;;;;;50.03;21.20;;;;;;;;;;5026892;28;20265;-77
2022/11/10 00:44:51;;;;;;;58.50;24.27;;;;;;;;;;5012021;28;20217;-77
2022/11/10 00:47:36;;;;;;;48.43;21.63;;;;;;;;;;5030649;28;20220;-78
2022/11/10 00:50:21;;;;;;;33.63;16.27;;;;;;;;;;5027238;28;20228;-77
2022/11/10 00:53:05;;;;;;;33.13;14.83;;;;;;;;;;5027470;28;20190;-77
2022/11/10 00:55:50;;;;;;;51.27;22.33;;;;;;;;;;5021620;28;20608;-77
2022/11/10 00:58:35;;;;;;;37.70;18.07;;;;;;;;;;5026575;28;20270;-77
2022/11/10 01:01:20;;;;;;;24.17;12.77;;;;;;;;;;5012119;28;20248;-77
2022/11/10 01:04:05;;;;;;;43.27;19.87;;;;;;;;;;5026346;28;20202;-77
2022/11/10 01:06:51;;;;;;;38.13;17.23;;;;;;;;;;5026458;28;20197;-77
2022/11/10 01:09:36;;;;;;;31.57;15.03;;;;;;;;;;5027958;28;20193;-77
2022/11/10 01:12:21;;;;;;;31.60;15.20;;;;;;;;;;5027628;28;20190;-77
2022/11/10 01:15:06;;;;;;;21.67;12.07;;;;;;;;;;5021327;28;20689;-77
2022/11/10 01:17:51;;;;;;;13.83;7.37;;;;;;;;;;5030643;28;20182;-77
2022/11/10 01:20:38;;;;;;;9.70;5.80;;;;;;;;;;5032740;28;20175;-77
2022/11/10 01:23:23;;;;;;;18.20;9.67;;;;;;;;;;5031558;28;20174;-77
2022/11/10 01:26:09;;;;;;;10.73;6.47;;;;;;;;;;5022539;28;20214;-77
2022/11/10 01:28:54;;;;;;;9.53;5.00;;;;;;;;;;5031374;28;20182;-77
2022/11/10 01:31:38;;;;;;;11.90;6.50;;;;;;;;;;5029676;28;20197;-77
2022/11/10 01:34:23;;;;;;;29.03;13.07;;;;;;;;;;5029863;28;20185;-77
2022/11/10 01:37:08;;;;;;;16.70;8.10;;;;;;;;;;5029799;28;20294;-77
2022/11/10 01:39:53;;;;;;;28.53;12.60;;;;;;;;;;5016279;28;20739;-77
2022/11/10 01:42:42;;;;;;;29.90;12.23;;;;;;;;;;5026778;28;20182;-77
2022/11/10 01:45:53;;;;;;;20.43;9.60;;;;;;;;;;5017742;28;20214;-77
2022/11/10 01:48:45;;;;;;;23.23;11.47;;;;;;;;;;5030726;28;20190;-77
2022/11/10 01:51:36;;;;;;;33.67;16.47;;;;;;;;;;5025938;28;20191;-77
2022/11/10 01:54:30;;;;;;;32.60;15.90;;;;;;;;;;5017547;28;20194;-77
2022/11/10 01:57:23;;;;;;;22.23;12.83;;;;;;;;;;5017669;28;20178;-77
2022/11/10 02:00:09;;;;;;;17.17;10.83;;;;;;;;;;5030401;28;20661;-77
2022/11/10 02:02:57;;;;;;;15.20;8.20;;;;;;;;;;5027506;28;20198;-77
2022/11/10 02:05:43;;;;;;;8.80;6.00;;;;;;;;;;5021506;28;20503;-77
2022/11/10 02:08:28;;;;;;;16.37;9.60;;;;;;;;;;5015625;28;20174;-77
2022/11/10 02:11:13;;;;;;;18.80;12.33;;;;;;;;;;5028830;28;20244;-77
2022/11/10 02:13:58;;;;;;;12.90;7.20;;;;;;;;;;5025794;28;20194;-77
2022/11/10 02:16:43;;;;;;;7.40;5.67;;;;;;;;;;5026683;28;20229;-77
2022/11/10 02:19:28;;;;;;;7.33;5.00;;;;;;;;;;5024068;28;20186;-77
2022/11/10 02:22:13;;;;;;;8.67;4.40;;;;;;;;;;5025356;28;20244;-77
2022/11/10 02:24:58;;;;;;;6.77;4.67;;;;;;;;;;5030046;28;20301;-77
2022/11/10 02:27:43;;;;;;;9.70;4.80;;;;;;;;;;5028303;28;20183;-77
2022/11/10 02:30:28;;;;;;;6.77;4.27;;;;;;;;;;5031332;28;20209;-77
2022/11/10 02:33:13;;;;;;;6.63;4.43;;;;;;;;;;5030069;28;20174;-77
2022/11/10 02:35:58;;;;;;;6.50;4.53;;;;;;;;;;5027744;28;20190;-77
2022/11/10 02:38:43;;;;;;;6.47;4.50;;;;;;;;;;5029932;28;20194;-77
2022/11/10 02:41:27;;;;;;;6.07;4.37;;;;;;;;;;5027337;28;20193;-77
2022/11/10 02:44:13;;;;;;;7.20;3.90;;;;;;;;;;5013991;28;20226;-77
2022/11/10 02:46:58;;;;;;;6.57;4.63;;;;;;;;;;5025453;28;20191;-77
2022/11/10 02:49:43;;;;;;;9.27;4.50;;;;;;;;;;5017986;28;20195;-77
2022/11/10 02:52:29;;;;;;;8.10;4.80;;;;;;;;;;5016438;28;20261;-78
2022/11/10 02:55:13;;;;;;;7.37;4.90;;;;;;;;;;5019758;28;20206;-78
2022/11/10 02:57:58;;;;;;;7.90;4.80;;;;;;;;;;5030753;28;20274;-78
2022/11/10 03:00:43;;;;;;;8.03;4.43;;;;;;;;;;5031801;28;20186;-78
2022/11/10 03:03:28;;;;;;;8.23;4.33;;;;;;;;;;5022278;28;20684;-78
2022/11/10 03:06:13;;;;;;;7.20;4.50;;;;;;;;;;5030698;28;20777;-78
2022/11/10 03:08:58;;;;;;;8.63;4.57;;;;;;;;;;5030656;28;20189;-78
2022/11/10 03:11:43;;;;;;;7.47;4.33;;;;;;;;;;5030408;28;20182;-78
2022/11/10 03:14:28;;;;;;;6.60;3.87;;;;;;;;;;5031149;28;20163;-79
2022/11/10 03:17:13;;;;;;;6.27;4.40;;;;;;;;;;5026575;28;20182;-78
2022/11/10 03:19:57;;;;;;;4.77;4.03;;;;;;;;;;5032004;28;20151;-78
2022/11/10 03:22:42;;;;;;;9.53;4.07;;;;;;;;;;5029865;28;20179;-78
2022/11/10 03:25:27;;;;;;;8.13;4.33;;;;;;;;;;5024764;28;20365;-78
2022/11/10 03:28:13;;;;;;;8.73;4.50;;;;;;;;;;5031899;28;20182;-78
2022/11/10 03:30:57;;;;;;;7.03;4.00;;;;;;;;;;5025646;28;20175;-78
2022/11/10 03:33:42;;;;;;;6.97;4.10;;;;;;;;;;5030121;28;20179;-78
2022/11/10 03:36:27;;;;;;;12.03;4.03;;;;;;;;;;5030037;28;20293;-78
2022/11/10 03:39:12;;;;;;;5.87;3.70;;;;;;;;;;5014921;28;20184;-78
2022/11/10 03:41:57;;;;;;;6.67;4.10;;;;;;;;;;5028322;28;20185;-78
2022/11/10 03:44:42;;;;;;;7.30;4.33;;;;;;;;;;5011105;28;20210;-78
2022/11/10 03:47:27;;;;;;;8.23;4.20;;;;;;;;;;5010123;28;20197;-78
2022/11/10 03:50:11;;;;;;;6.80;3.73;;;;;;;;;;5012153;28;20247;-78
2022/11/10 03:52:57;;;;;;;5.63;3.60;;;;;;;;;;5027264;28;20731;-78
2022/11/10 03:55:42;;;;;;;7.60;3.93;;;;;;;;;;5031093;28;20217;-78
2022/11/10 03:58:26;;;;;;;8.30;4.20;;;;;;;;;;5030165;28;20183;-78
2022/11/10 04:01:12;;;;;;;6.87;4.17;;;;;;;;;;5022202;28;20199;-78
2022/11/10 04:03:56;;;;;;;7.40;4.00;;;;;;;;;;5028008;28;20191;-78
2022/11/10 04:09:45;;;;;;;7.33;3.70;;;;;;;;;;5024295;28;20249;-78
2022/11/10 04:15:43;;;;;;;7.43;3.60;;;;;;;;;;5028493;28;20268;-78
2022/11/10 04:18:28;;;;;;;5.47;3.80;;;;;;;;;;5027756;28;20255;-78
2022/11/10 04:21:13;;;;;;;5.57;3.57;;;;;;;;;;5029639;28;20225;-78
2022/11/10 04:23:58;;;;;;;6.90;4.10;;;;;;;;;;5018777;28;20185;-78
2022/11/10 04:26:44;;;;;;;8.17;4.17;;;;;;;;;;5034923;28;20229;-78
2022/11/10 04:29:29;;;;;;;7.10;3.97;;;;;;;;;;5024683;28;20182;-77
2022/11/10 04:32:14;;;;;;;11.20;5.67;;;;;;;;;;5013886;28;20190;-77
2022/11/10 04:34:58;;;;;;;7.70;4.83;;;;;;;;;;5009377;28;20206;-78
2022/11/10 04:37:45;;;;;;;9.17;4.60;;;;;;;;;;5017755;28;20737;-78
2022/11/10 04:40:30;;;;;;;7.00;4.03;;;;;;;;;;5016189;28;20179;-78
2022/11/10 04:43:15;;;;;;;7.27;4.33;;;;;;;;;;5011809;28;20171;-78
2022/11/10 04:46:00;;;;;;;9.10;4.70;;;;;;;;;;5028071;28;20210;-78
2022/11/10 04:48:45;;;;;;;7.30;4.00;;;;;;;;;;5028620;28;20169;-78
2022/11/10 04:51:31;;;;;;;7.20;4.30;;;;;;;;;;5018959;28;20214;-78
2022/11/10 04:54:16;;;;;;;10.57;4.40;;;;;;;;;;5028749;28;20214;-78
2022/11/10 04:57:00;;;;;;;7.97;4.33;;;;;;;;;;5027695;28;20185;-78
2022/11/10 04:59:45;;;;;;;8.93;4.30;;;;;;;;;;5020457;28;20182;-78
2022/11/10 05:02:30;;;;;;;7.40;4.30;;;;;;;;;;5021392;28;20243;-78
2022/11/10 05:05:15;;;;;;;8.00;4.10;;;;;;;;;;5028312;28;20206;-78
2022/11/10 05:08:02;;;;;;;8.20;5.13;;;;;;;;;;5017946;28;20488;-78
2022/11/10 05:10:47;;;;;;;9.13;4.93;;;;;;;;;;5025057;28;20717;-78
2022/11/10 05:13:32;;;;;;;7.50;5.00;;;;;;;;;;5033864;28;20986;-78
2022/11/10 05:16:16;;;;;;;7.07;4.40;;;;;;;;;;5020012;28;20206;-78
2022/11/10 05:19:02;;;;;;;7.63;4.40;;;;;;;;;;5025271;28;20264;-78
2022/11/10 05:21:47;;;;;;;8.90;4.17;;;;;;;;;;5027629;28;20186;-78
2022/11/10 05:24:32;;;;;;;7.87;4.80;;;;;;;;;;5027956;28;20277;-79
2022/11/10 05:27:17;;;;;;;8.93;5.38;;;;;;;;;;5026469;28;20433;-78
2022/11/10 05:30:02;;;;;;;10.13;4.67;;;;;;;;;;5029572;28;20177;-78
2022/11/10 05:32:46;;;;;;;8.23;5.10;;;;;;;;;;5042270;28;20185;-78
2022/11/10 05:35:31;;;;;;;10.60;5.23;;;;;;;;;;5030052;28;20230;-79
2022/11/10 05:38:16;;;;;;;6.87;4.60;;;;;;;;;;5029792;28;20194;-78
2022/11/10 05:41:01;;;;;;;11.67;5.97;;;;;;;;;;5030889;28;20816;-78
2022/11/10 05:43:46;;;;;;;9.73;5.23;;;;;;;;;;5030195;28;20433;-78
2022/11/10 05:46:31;;;;;;;8.97;5.43;;;;;;;;;;5030025;28;20213;-78
2022/11/10 05:49:16;;;;;;;10.53;5.60;;;;;;;;;;5031511;28;20205;-78
2022/11/10 05:52:01;;;;;;;8.93;5.10;;;;;;;;;;5030197;28;20202;-79
2022/11/10 05:54:46;;;;;;;9.47;5.43;;;;;;;;;;5028497;28;20740;-79
2022/11/10 05:57:31;;;;;;;7.53;4.67;;;;;;;;;;5029517;28;20294;-79
2022/11/10 06:00:17;;;;;;;8.80;4.90;;;;;;;;;;5025862;28;20719;-79
2022/11/10 06:03:05;;;;;;;7.47;4.57;;;;;;;;;;5018497;28;20225;-79
2022/11/10 06:05:50;;;;;;;7.60;5.13;;;;;;;;;;5031041;28;20448;-76
2022/11/10 06:08:35;;;;;;;8.03;5.10;;;;;;;;;;5040671;28;20182;-79
2022/11/10 06:11:20;;;;;;;9.77;5.57;;;;;;;;;;5029728;28;20183;-76
2022/11/10 06:14:05;;;;;;;7.43;5.13;;;;;;;;;;5028125;28;20187;-82
2022/11/10 06:16:50;;;;;;;6.57;4.80;;;;;;;;;;5027828;28;20563;-82
2022/11/10 06:19:35;;;;;;;7.70;4.70;;;;;;;;;;5043723;28;20256;-78
2022/11/10 06:22:19;;;;;;;7.97;4.30;;;;;;;;;;5016927;28;20186;-79
2022/11/10 06:25:05;;;;;;;8.73;4.87;;;;;;;;;;5025446;28;20210;-76
2022/11/10 06:27:50;;;;;;;7.90;4.53;;;;;;;;;;5042301;28;20190;-77
2022/11/10 06:30:36;;;;;;;7.43;5.10;;;;;;;;;;5029774;28;20178;-79
2022/11/10 06:33:20;;;;;;;12.03;5.40;;;;;;;;;;5031174;28;20244;-83
2022/11/10 06:36:05;;;;;;;6.90;4.70;;;;;;;;;;5032159;28;20278;-79
2022/11/10 06:38:54;;;;;;;8.60;4.33;;;;;;;;;;5031861;28;20186;-78
2022/11/10 06:41:38;;;;;;;9.07;5.10;;;;;;;;;;5024729;28;20190;-80
2022/11/10 06:44:23;;;;;;;10.67;5.00;;;;;;;;;;5023998;28;20276;-79
2022/11/10 06:47:08;;;;;;;10.40;5.60;;;;;;;;;;5022624;28;20183;-79
2022/11/10 06:49:53;;;;;;;12.13;5.50;;;;;;;;;;5028409;28;20229;-81
2022/11/10 06:52:38;;;;;;;12.93;5.60;;;;;;;;;;5016892;28;20186;-75
2022/11/10 06:55:23;;;;;;;10.97;5.80;;;;;;;;;;5025292;28;20215;-79
2022/11/10 06:58:08;;;;;;;9.43;5.50;;;;;;;;;;5031237;28;20186;-81
2022/11/10 07:00:54;;;;;;;9.97;5.70;;;;;;;;;;5020635;28;20182;-78
2022/11/10 07:03:39;;;;;;;6.23;4.60;;;;;;;;;;5039407;28;20201;-80
2022/11/10 07:06:24;;;;;;;11.33;5.97;;;;;;;;;;5030460;28;20403;-79
2022/11/10 07:09:09;;;;;;;8.23;5.10;;;;;;;;;;5031463;28;20197;-79
2022/11/10 07:11:54;;;;;;;12.20;5.80;;;;;;;;;;5032768;28;20182;-79
2022/11/10 07:14:39;;;;;;;8.53;5.67;;;;;;;;;;5025288;28;20167;-79
2022/11/10 07:17:24;;;;;;;9.73;5.17;;;;;;;;;;5034304;28;20189;-79
2022/11/10 07:20:09;;;;;;;9.87;6.10;;;;;;;;;;5031833;28;20197;-79
2022/11/10 07:22:58;;;;;;;10.43;5.80;;;;;;;;;;5014767;28;20560;-79
2022/11/10 07:25:43;;;;;;;7.33;5.53;;;;;;;;;;5034453;28;20258;-79
2022/11/10 07:28:28;;;;;;;10.03;6.27;;;;;;;;;;5030789;28;20220;-79
2022/11/10 07:31:13;;;;;;;9.77;5.67;;;;;;;;;;5030358;28;20294;-79
2022/11/10 07:33:58;;;;;;;8.63;5.67;;;;;;;;;;5033440;28;20175;-79
2022/11/10 07:36:43;;;;;;;10.93;6.13;;;;;;;;;;5023431;28;20203;-80
2022/11/10 07:39:28;;;;;;;11.10;5.80;;;;;;;;;;5031523;28;20650;-82
2022/11/10 07:42:13;;;;;;;8.77;5.87;;;;;;;;;;5029269;28;20213;-78
2022/11/10 07:44:58;;;;;;;10.63;6.07;;;;;;;;;;5027897;28;20221;-78
2022/11/10 07:47:43;;;;;;;9.27;5.90;;;;;;;;;;5020810;28;20261;-78
2022/11/10 07:50:28;;;;;;;9.70;5.93;;;;;;;;;;5023199;28;20595;-78
2022/11/10 07:53:14;;;;;;;9.40;5.67;;;;;;;;;;5027534;28;20182;-78
2022/11/10 07:55:58;;;;;;;9.23;5.50;;;;;;;;;;5031902;28;20218;-78
2022/11/10 07:58:43;;;;;;;9.50;5.60;;;;;;;;;;5031227;28;20700;-78
2022/11/10 08:01:28;;;;;;;8.47;5.60;;;;;;;;;;5030476;28;20209;-78
2022/11/10 08:04:13;;;;;;;8.37;5.60;;;;;;;;;;5023572;28;20215;-79
2022/11/10 08:06:58;;;;;;;7.93;5.30;;;;;;;;;;5031295;28;20209;-79
2022/11/10 08:09:43;;;;;;;10.97;5.97;;;;;;;;;;5030412;28;20206;-78
2022/11/10 08:12:28;;;;;;;8.53;5.70;;;;;;;;;;5024511;28;20201;-78
2022/11/10 08:15:14;;;;;;;11.13;5.90;;;;;;;;;;5021389;28;20293;-78
2022/11/10 08:18:06;;;;;;;6.03;5.03;;;;;;;;;;5027675;28;20194;-78
2022/11/10 08:20:51;;;;;;;10.40;5.37;;;;;;;;;;5024425;28;20183;-79
2022/11/10 08:23:36;;;;;;;8.67;5.40;;;;;;;;;;5029618;28;20193;-78
2022/11/10 08:26:21;;;;;;;9.93;5.37;;;;;;;;;;5013476;28;20218;-78
2022/11/10 08:29:05;;;;;;;10.80;4.90;;;;;;;;;;5025314;28;20193;-79
2022/11/10 08:31:51;;;;;;;9.53;5.20;;;;;;;;;;5030735;28;20179;-79
2022/11/10 08:34:37;;;;;;;10.40;5.10;;;;;;;;;;5030853;28;20289;-78
2022/11/10 08:37:22;;;;;;;11.17;5.17;;;;;;;;;;5030057;28;20208;-79
2022/11/10 08:40:07;;;;;;;8.73;4.90;;;;;;;;;;5044781;28;20603;-79
2022/11/10 08:42:58;;;;;;;11.90;4.80;;;;;;;;;;5029591;28;20182;-79
2022/11/10 08:45:44;;;;;;;8.47;4.63;;;;;;;;;;5024062;28;20229;-79
2022/11/10 08:48:30;;;;;;;8.87;4.50;;;;;;;;;;5020751;28;20174;-79
2022/11/10 08:51:14;;;;;;;7.57;4.50;;;;;;;;;;5030111;28;20275;-78
2022/11/10 08:53:59;;;;;;;8.33;4.30;;;;;;;;;;5022936;28;20167;-79
2022/11/10 08:56:44;;;;;;;9.77;4.50;;;;;;;;;;5029099;28;20213;-79
2022/11/10 08:59:29;;;;;;;7.23;4.13;;;;;;;;;;5027275;28;20206;-79
2022/11/10 09:02:14;;;;;;;7.33;4.20;;;;;;;;;;5022272;28;20761;-79
2022/11/10 09:04:59;;;;;;;7.00;4.00;;;;;;;;;;5028004;28;20260;-79
2022/11/10 09:07:44;;;;;;;13.37;4.80;;;;;;;;;;5027366;28;20296;-78
2022/11/10 09:10:30;;;;;;;11.90;4.13;;;;;;;;;;5037015;28;20181;-78
2022/11/10 09:13:15;;;;;;;8.73;4.13;;;;;;;;;;5033571;28;20186;-79
2022/11/10 09:16:04;;;;;;;10.60;4.47;;;;;;;;;;5036594;28;20440;-78
2022/11/10 09:18:48;;;;;;;9.00;3.97;;;;;;;;;;5032514;28;20210;-79
2022/11/10 09:21:35;;;;;;;7.47;4.37;;;;;;;;;;5039925;28;20208;-79
2022/11/10 09:24:19;;;;;;;6.07;3.73;;;;;;;;;;5039462;28;20237;-78
2022/11/10 09:27:04;;;;;;;9.33;4.20;;;;;;;;;;5035737;28;20193;-78
2022/11/10 09:29:49;;;;;;;9.90;4.40;;;;;;;;;;5035864;28;20531;-79
2022/11/10 09:32:34;;;;;;;7.70;4.00;;;;;;;;;;5028392;28;20171;-79
2022/11/10 09:35:19;;;;;;;8.80;3.97;;;;;;;;;;5026345;28;20214;-79
2022/11/10 09:38:04;;;;;;;7.03;3.63;;;;;;;;;;5021150;28;20830;-79
2022/11/10 09:41:03;;;;;;;8.77;4.00;;;;;;;;;;5014225;28;20214;-79
2022/11/10 09:44:07;;;;;;;8.43;3.70;;;;;;;;;;5012143;28;20639;-79
2022/11/10 09:47:10;;;;;;;9.17;4.00;;;;;;;;;;5020561;28;20648;-78
2022/11/10 09:49:57;;;;;;;8.03;3.40;;;;;;;;;;5037918;28;20201;-78
2022/11/10 09:52:43;;;;;;;7.17;3.40;;;;;;;;;;5029576;28;20192;-78
2022/11/10 09:55:38;;;;;;;8.53;3.83;;;;;;;;;;5029083;28;20203;-78
2022/11/10 09:58:25;;;;;;;8.37;3.70;;;;;;;;;;5023428;28;20175;-78
2022/11/10 10:01:12;;;;;;;8.27;3.37;;;;;;;;;;5022432;28;20204;-78
2022/11/10 10:04:16;;;;;;;7.97;3.40;;;;;;;;;;5031773;28;20764;-79
2022/11/10 10:07:03;;;;;;;6.50;3.40;;;;;;;;;;5029385;28;20208;-78
2022/11/10 10:09:52;;;;;;;7.00;3.27;;;;;;;;;;5026338;28;20247;-79
2022/11/10 10:12:40;;;;;;;9.93;4.00;;;;;;;;;;5017163;28;20178;-78
2022/11/10 10:15:43;;;;;;;5.70;3.17;;;;;;;;;;5028002;28;20325;-78
2022/11/10 10:18:33;;;;;;;13.93;3.87;;;;;;;;;;5019986;28;20178;-78
2022/11/10 10:21:30;;;;;;;8.83;3.40;;;;;;;;;;5029984;28;20187;-78
2022/11/10 10:24:17;;;;;;;8.20;3.50;;;;;;;;;;5028817;28;20834;-78
2022/11/10 10:27:04;;;;;;;7.67;2.70;;;;;;;;;;5032389;28;20182;-79
2022/11/10 10:29:49;;;;;;;9.10;3.30;;;;;;;;;;5027645;28;20183;-78
2022/11/10 10:32:33;;;;;;;8.87;3.00;;;;;;;;;;5026947;28;20183;-78
2022/11/10 10:35:18;;;;;;;7.90;3.10;;;;;;;;;;5006414;28;20238;-79
2022/11/10 10:38:04;;;;;;;9.27;3.17;;;;;;;;;;5026790;28;20186;-78
2022/11/10 10:40:50;;;;;;;11.37;4.00;;;;;;;;;;5030644;28;20340;-78
2022/11/10 10:43:34;;;;;;;8.27;3.90;;;;;;;;;;5026257;28;20230;-78
2022/11/10 10:46:25;;;;;;;7.07;3.40;;;;;;;;;;5024957;28;20213;-78
2022/11/10 10:49:21;;;;;;;7.03;3.60;;;;;;;;;;5032569;28;20206;-79
2022/11/10 10:52:14;;;;;;;9.50;3.70;;;;;;;;;;5021624;28;20175;-79
2022/11/10 10:55:00;;;;;;;6.80;3.43;;;;;;;;;;5030621;28;20273;-79
2022/11/10 10:57:52;;;;;;;7.80;3.50;;;;;;;;;;5016088;28;20210;-78
2022/11/10 11:00:43;;;;;;;15.97;4.10;;;;;;;;;;5035825;28;20194;-78
2022/11/10 11:03:30;;;;;;;8.97;3.53;;;;;;;;;;5046503;28;20454;-79
2022/11/10 11:06:15;;;;;;;6.83;3.40;;;;;;;;;;5019226;28;20210;-78
2022/11/10 11:09:08;;;;;;;9.93;3.87;;;;;;;;;;5031466;28;20194;-79
2022/11/10 11:12:03;;;;;;;10.93;4.50;;;;;;;;;;5020417;28;20187;-79
2022/11/10 11:14:48;;;;;;;7.67;3.77;;;;;;;;;;5014240;28;20241;-79
2022/11/10 11:17:33;;;;;;;12.23;3.83;;;;;;;;;;5037492;28;20270;-79
2022/11/10 11:20:18;;;;;;;8.43;3.50;;;;;;;;;;5029568;28;20182;-80
2022/11/10 11:23:07;;;;;;;9.40;4.00;;;;;;;;;;5029569;28;20262;-80
2022/11/10 11:25:54;;;;;;;7.17;3.30;;;;;;;;;;5014959;28;20214;-80
2022/11/10 11:28:45;;;;;;;8.33;3.37;;;;;;;;;;5027561;28;20201;-73
2022/11/10 11:31:39;;;;;;;9.03;3.83;;;;;;;;;;5026658;28;20183;-73
2022/11/10 11:34:31;;;;;;;8.10;3.40;;;;;;;;;;5032052;28;20190;-78
2022/11/10 11:37:16;;;;;;;7.23;3.10;;;;;;;;;;5027766;28;20241;-78
2022/11/10 11:40:06;;;;;;;7.80;3.10;;;;;;;;;;5028931;28;20185;-79
2022/11/10 11:43:27;;;;;;;8.13;3.43;;;;;;;;;;5027990;28;20182;-79
2022/11/10 11:46:17;;;;;;;10.60;3.23;;;;;;;;;;4978456;28;22326;-77
2022/11/10 11:49:14;;;;;;;9.80;3.00;;;;;;;;;;5019395;28;20182;-79
2022/11/10 11:52:22;;;;;;;7.93;2.83;;;;;;;;;;5028695;28;20843;-79
2022/11/10 11:55:07;;;;;;;7.83;2.87;;;;;;;;;;5048610;28;20221;-79
2022/11/10 11:58:07;;;;;;;6.83;2.73;;;;;;;;;;5025182;28;20187;-78
2022/11/10 12:01:04;;;;;;;8.37;2.70;;;;;;;;;;5022433;28;20263;-75
2022/11/10 12:04:09;;;;;;;7.20;3.00;;;;;;;;;;5027314;28;20265;-77
2022/11/10 12:06:54;;;;;;;6.27;2.83;;;;;;;;;;5014240;28;20569;-79
2022/11/10 12:09:46;;;;;;;7.20;2.47;;;;;;;;;;5032659;28;20179;-78
2022/11/10 12:12:50;;;;;;;9.40;2.67;;;;;;;;;;5008911;28;20321;-78
2022/11/10 12:15:41;;;;;;;7.13;2.30;;;;;;;;;;5020678;28;20641;-79
2022/11/10 12:18:36;;;;;;;8.53;2.43;;;;;;;;;;5041520;28;20863;-79
2022/11/10 12:21:24;;;;;;;6.17;2.40;;;;;;;;;;5028394;28;20183;-78
2022/11/10 12:24:14;;;;;;;7.20;2.50;;;;;;;;;;5028321;28;20741;-79
2022/11/10 12:27:03;;;;;;;6.40;2.30;;;;;;;;;;5027450;28;20849;-78
2022/11/10 12:29:52;;;;;;;4.97;2.37;;;;;;;;;;5020533;28;20242;-79
2022/11/10 12:32:41;;;;;;;9.17;2.60;;;;;;;;;;5020496;28;20722;-79
2022/11/10 12:35:28;;;;;;;6.03;2.37;;;;;;;;;;5020004;28;20654;-79
2022/11/10 12:38:34;;;;;;;5.43;2.00;;;;;;;;;;5025113;28;20665;-79
2022/11/10 12:41:20;;;;;;;7.80;2.43;;;;;;;;;;5007969;28;20182;-78
2022/11/10 12:44:05;;;;;;;7.27;2.53;;;;;;;;;;5020012;28;20278;-78
2022/11/10 12:46:53;;;;;;;6.13;2.00;;;;;;;;;;5029661;28;20217;-77
2022/11/10 12:49:47;;;;;;;7.90;2.00;;;;;;;;;;5019189;28;20189;-78
2022/11/10 12:52:35;;;;;;;7.43;2.47;;;;;;;;;;5029627;28;20194;-77
2022/11/10 12:55:25;;;;;;;5.13;2.00;;;;;;;;;;5031292;28;20202;-77
2022/11/10 12:58:12;;;;;;;7.10;2.13;;;;;;;;;;5031295;28;20186;-77
2022/11/10 13:00:59;;;;;;;8.33;2.10;;;;;;;;;;5029826;28;20565;-77
2022/11/10 13:03:59;;;;;;;7.77;2.17;;;;;;;;;;5025721;28;20293;-78
2022/11/10 13:06:48;;;;;;;5.73;2.20;;;;;;;;;;5022851;28;20225;-78
2022/11/10 13:09:35;;;;;;;7.80;2.00;;;;;;;;;;5027430;28;20567;-78
2022/11/10 13:12:24;;;;;;;6.77;2.00;;;;;;;;;;5028370;28;20247;-78
2022/11/10 13:15:27;;;;;;;8.97;2.00;;;;;;;;;;5033710;28;20228;-78
2022/11/10 13:18:21;;;;;;;7.13;1.97;;;;;;;;;;5025010;28;20579;-78
2022/11/10 13:21:06;;;;;;;6.03;1.90;;;;;;;;;;5048225;28;20637;-77
2022/11/10 13:23:51;;;;;;;5.80;1.90;;;;;;;;;;5030220;28;20292;-77
2022/11/10 13:26:38;;;;;;;4.43;2.10;;;;;;;;;;5027591;28;20321;-77
2022/11/10 13:29:33;;;;;;;7.67;2.10;;;;;;;;;;5025317;28;20191;-77
2022/11/10 13:32:23;;;;;;;6.10;2.50;;;;;;;;;;5034031;28;20197;-77
2022/11/10 13:35:36;;;;;;;8.43;2.33;;;;;;;;;;5034833;28;20201;-78
2022/11/10 13:38:31;;;;;;;8.80;2.30;;;;;;;;;;5022139;28;20198;-78
2022/11/10 13:41:15;;;;;;;6.13;2.00;;;;;;;;;;5029160;28;20187;-78
2022/11/10 13:44:01;;;;;;;11.17;2.50;;;;;;;;;;5034365;28;20213;-78
2022/11/10 13:47:03;;;;;;;4.77;2.10;;;;;;;;;;5055179;28;20218;-78
2022/11/10 13:50:00;;;;;;;6.40;2.33;;;;;;;;;;5027195;28;20209;-78
2022/11/10 13:53:00;;;;;;;6.93;2.30;;;;;;;;;;5033187;28;20186;-80
2022/11/10 13:55:49;;;;;;;8.90;2.27;;;;;;;;;;5032667;28;20692;-79
2022/11/10 13:58:35;;;;;;;6.70;2.37;;;;;;;;;;5028157;28;20233;-78
2022/11/10 14:01:22;;;;;;;6.03;1.90;;;;;;;;;;5016856;28;20181;-78
2022/11/10 14:04:07;;;;;;;5.60;2.30;;;;;;;;;;5033800;28;20548;-78
2022/11/10 14:06:53;;;;;;;5.80;2.07;;;;;;;;;;5033976;28;20174;-73
2022/11/10 14:09:39;;;;;;;7.53;2.53;;;;;;;;;;5035278;28;20236;-76
2022/11/10 14:12:29;;;;;;;5.60;2.30;;;;;;;;;;5031336;28;20200;-82
2022/11/10 14:15:17;;;;;;;7.07;2.20;;;;;;;;;;5032627;28;20211;-82
2022/11/10 14:18:13;;;;;;;6.73;2.13;;;;;;;;;;5036158;28;20575;-85
2022/11/10 14:20:59;;;;;;;6.20;2.10;;;;;;;;;;5026618;28;20175;-78
2022/11/10 14:23:52;;;;;;;4.90;2.17;;;;;;;;;;5032790;28;20202;-80
2022/11/10 14:26:41;;;;;;;9.63;2.50;;;;;;;;;;5040293;28;20221;-80
2022/11/10 14:29:39;;;;;;;6.13;2.30;;;;;;;;;;5035262;28;20205;-81
2022/11/10 14:32:26;;;;;;;7.77;2.97;;;;;;;;;;5036458;28;20703;-81
2022/11/10 14:35:21;;;;;;;7.50;2.83;;;;;;;;;;5035418;28;20202;-81
2022/11/10 14:38:14;;;;;;;5.20;2.30;;;;;;;;;;5035504;28;20179;-81
2022/11/10 14:41:00;;;;;;;3.93;1.90;;;;;;;;;;5037797;28;20178;-81
2022/11/10 14:43:57;;;;;;;6.13;2.20;;;;;;;;;;5032620;28;20189;-81
2022/11/10 14:46:42;;;;;;;5.90;2.27;;;;;;;;;;5032252;28;20218;-82
2022/11/10 14:49:27;;;;;;;5.57;2.27;;;;;;;;;;5033172;28;20645;-81
2022/11/10 14:52:12;;;;;;;5.20;2.10;;;;;;;;;;5034926;28;20179;-81
2022/11/10 14:54:58;;;;;;;3.27;1.87;;;;;;;;;;5035450;28;20210;-81
2022/11/10 14:57:46;;;;;;;6.70;2.30;;;;;;;;;;5033686;28;20198;-81
2022/11/10 15:00:34;;;;;;;6.17;2.17;;;;;;;;;;5019241;28;20175;-81
2022/11/10 15:03:42;;;;;;;5.80;2.50;;;;;;;;;;5027577;28;20593;-81
2022/11/10 15:06:27;;;;;;;5.40;2.40;;;;;;;;;;5020979;28;20222;-81
2022/11/10 15:09:20;;;;;;;5.57;2.47;;;;;;;;;;5032124;28;20174;-81
2022/11/10 15:12:08;;;;;;;5.10;2.17;;;;;;;;;;5030201;28;20182;-81
2022/11/10 15:15:00;;;;;;;4.67;2.30;;;;;;;;;;5026614;28;20909;-81
2022/11/10 15:17:49;;;;;;;4.93;2.20;;;;;;;;;;5028091;28;20174;-80
2022/11/10 15:20:35;;;;;;;5.40;2.43;;;;;;;;;;5026608;28;20190;-81
2022/11/10 15:23:22;;;;;;;6.37;2.47;;;;;;;;;;5030252;28;20210;-80
2022/11/10 15:26:17;;;;;;;7.27;2.67;;;;;;;;;;5030276;28;20233;-81
2022/11/10 15:29:02;;;;;;;6.47;2.90;;;;;;;;;;5033903;28;20187;-81
2022/11/10 15:31:47;;;;;;;7.57;3.00;;;;;;;;;;5032336;28;20170;-81
2022/11/10 15:34:40;;;;;;;6.57;3.20;;;;;;;;;;5029876;28;20713;-81
2022/11/10 15:37:26;;;;;;;6.37;3.07;;;;;;;;;;5027892;28;20593;-81
2022/11/10 15:40:31;;;;;;;7.70;2.90;;;;;;;;;;5024529;28;20178;-81
2022/11/10 15:43:23;;;;;;;8.87;3.10;;;;;;;;;;5012238;28;20264;-81
2022/11/10 15:46:13;;;;;;;6.70;2.70;;;;;;;;;;5029096;28;20218;-81
2022/11/10 15:48:57;;;;;;;4.70;2.50;;;;;;;;;;5029477;28;20188;-80
2022/11/10 15:51:42;;;;;;;5.77;2.50;;;;;;;;;;5032940;28;20257;-81
2022/11/10 15:54:32;;;;;;;6.60;2.80;;;;;;;;;;5032309;28;20668;-80
2022/11/10 15:57:18;;;;;;;3.60;2.20;;;;;;;;;;5045166;28;20185;-80
2022/11/10 16:00:03;;;;;;;8.53;2.80;;;;;;;;;;5014947;28;20175;-81
2022/11/10 16:02:48;;;;;;;6.70;3.10;;;;;;;;;;5043856;28;20182;-81
2022/11/10 16:05:33;;;;;;;7.90;3.37;;;;;;;;;;5045085;28;20716;-82
2022/11/10 16:08:19;;;;;;;8.07;4.70;;;;;;;;;;5045509;28;20447;-82
2022/11/10 16:11:05;;;;;;;9.73;4.10;;;;;;;;;;5028910;28;20168;-81
2022/11/10 16:13:51;;;;;;;8.85;5.00;;;;;;;;;;5042675;28;20444;-81
2022/11/10 16:16:37;;;;;;;8.07;4.27;;;;;;;;;;5045695;28;20232;-81
2022/11/10 16:19:23;;;;;;;8.73;4.50;;;;;;;;;;5040431;28;20480;-82
2022/11/10 16:22:10;;;;;;;8.37;4.00;;;;;;;;;;5043630;28;20187;-81
2022/11/10 16:24:56;;;;;;;6.33;3.90;;;;;;;;;;5046023;28;20214;-81
2022/11/10 16:27:41;;;;;;;7.53;3.90;;;;;;;;;;5030802;28;20179;-81
2022/11/10 16:30:26;;;;;;;7.20;4.50;;;;;;;;;;5040460;28;20191;-81
2022/11/10 16:33:14;;;;;;;14.77;5.43;;;;;;;;;;5011431;28;20164;-81
2022/11/10 16:35:59;;;;;;;11.10;5.80;;;;;;;;;;5017379;28;20202;-81
2022/11/10 16:38:44;;;;;;;18.70;12.33;;;;;;;;;;5024445;28;20237;-82
2022/11/10 16:41:29;;;;;;;12.30;10.07;;;;;;;;;;5033513;28;20201;-81
2022/11/10 16:44:15;;;;;;;14.47;9.40;;;;;;;;;;5037541;28;20670;-81
2022/11/10 16:47:00;;;;;;;12.87;9.73;;;;;;;;;;5031779;28;20223;-81